sensor_id;sensor_type;location;lat;lon;timestamp;P1;durP1;ratioP1;P2;durP2;ratioP2
20397;SDS011;10358;49.590;11.030;2023-07-31T00:00:06;9.25;;;1.80;;
20397;SDS011;10358;49.590;11.030;2023-07-31T00:02:33;5.53;;;1.80;;
20397;SDS011;10358;49.590;11.030;2023-07-31T00:04:59;3.67;;;1.50;;
20397;SDS011;10358;49.590;11.030;2023-07-31T00:07:25;8.23;;;1.83;;
20397;SDS011;10358;49.590;11.030;2023-07-31T00:16:35;4.15;;;1.60;;
20397;SDS011;10358;49.590;11.030;2023-07-31T00:19:00;7.28;;;1.95;;
20397;SDS011;10358;49.590;11.030;2023-07-31T00:21:26;5.53;;;1.52;;
20397;SDS011;10358;49.590;11.030;2023-07-31T00:23:51;4.53;;;1.50;;
20397;SDS011;10358;49.590;11.030;2023-07-31T00:26:17;4.43;;;1.67;;
20397;SDS011;10358;49.590;11.030;2023-07-31T00:28:42;10.65;;;1.90;;
20397;SDS011;10358;49.590;11.030;2023-07-31T00:31:08;5.95;;;1.80;;
20397;SDS011;10358;49.590;11.030;2023-07-31T00:33:34;7.00;;;2.00;;
20397;SDS011;10358;49.590;11.030;2023-07-31T00:36:00;4.70;;;1.98;;
20397;SDS011;10358;49.590;11.030;2023-07-31T00:38:26;5.43;;;1.80;;
20397;SDS011;10358;49.590;11.030;2023-07-31T00:40:51;5.40;;;1.95;;
20397;SDS011;10358;49.590;11.030;2023-07-31T00:43:17;5.25;;;1.70;;
20397;SDS011;10358;49.590;11.030;2023-07-31T00:45:42;4.97;;;1.70;;
20397;SDS011;10358;49.590;11.030;2023-07-31T00:48:08;5.50;;;1.58;;
20397;SDS011;10358;49.590;11.030;2023-07-31T00:50:34;6.22;;;2.20;;
20397;SDS011;10358;49.590;11.030;2023-07-31T00:53:00;6.05;;;2.20;;
20397;SDS011;10358;49.590;11.030;2023-07-31T00:55:26;6.53;;;2.30;;
20397;SDS011;10358;49.590;11.030;2023-07-31T00:57:52;8.32;;;2.40;;
20397;SDS011;10358;49.590;11.030;2023-07-31T01:00:20;4.55;;;2.17;;
20397;SDS011;10358;49.590;11.030;2023-07-31T01:02:46;5.75;;;2.00;;
20397;SDS011;10358;49.590;11.030;2023-07-31T01:05:16;5.47;;;1.80;;
20397;SDS011;10358;49.590;11.030;2023-07-31T01:07:56;4.47;;;1.95;;
20397;SDS011;10358;49.590;11.030;2023-07-31T01:10:31;5.03;;;1.98;;
20397;SDS011;10358;49.590;11.030;2023-07-31T01:13:06;7.75;;;2.17;;
20397;SDS011;10358;49.590;11.030;2023-07-31T01:15:33;3.22;;;1.75;;
20397;SDS011;10358;49.590;11.030;2023-07-31T01:17:58;5.20;;;1.63;;
20397;SDS011;10358;49.590;11.030;2023-07-31T01:20:24;8.10;;;1.75;;
20397;SDS011;10358;49.590;11.030;2023-07-31T01:26:00;6.35;;;1.73;;
20397;SDS011;10358;49.590;11.030;2023-07-31T01:31:29;4.70;;;1.50;;
20397;SDS011;10358;49.590;11.030;2023-07-31T01:33:56;4.18;;;1.50;;
20397;SDS011;10358;49.590;11.030;2023-07-31T01:36:25;5.75;;;1.77;;
20397;SDS011;10358;49.590;11.030;2023-07-31T01:38:51;6.18;;;2.10;;
20397;SDS011;10358;49.590;11.030;2023-07-31T01:41:17;8.95;;;2.00;;
20397;SDS011;10358;49.590;11.030;2023-07-31T01:43:43;6.13;;;1.77;;
20397;SDS011;10358;49.590;11.030;2023-07-31T01:46:10;9.40;;;2.03;;
20397;SDS011;10358;49.590;11.030;2023-07-31T01:48:35;9.20;;;2.15;;
20397;SDS011;10358;49.590;11.030;2023-07-31T01:51:02;5.00;;;1.50;;
20397;SDS011;10358;49.590;11.030;2023-07-31T01:53:28;4.60;;;1.90;;
20397;SDS011;10358;49.590;11.030;2023-07-31T01:55:54;4.57;;;1.75;;
20397;SDS011;10358;49.590;11.030;2023-07-31T01:58:20;7.75;;;2.75;;
20397;SDS011;10358;49.590;11.030;2023-07-31T02:00:45;6.65;;;1.80;;
20397;SDS011;10358;49.590;11.030;2023-07-31T02:03:11;6.55;;;1.88;;
20397;SDS011;10358;49.590;11.030;2023-07-31T02:05:43;10.10;;;1.90;;
20397;SDS011;10358;49.590;11.030;2023-07-31T02:08:09;5.30;;;1.60;;
20397;SDS011;10358;49.590;11.030;2023-07-31T02:10:35;6.45;;;2.00;;
20397;SDS011;10358;49.590;11.030;2023-07-31T02:13:00;8.18;;;2.17;;
20397;SDS011;10358;49.590;11.030;2023-07-31T02:15:26;4.57;;;1.67;;
20397;SDS011;10358;49.590;11.030;2023-07-31T02:17:52;3.13;;;1.48;;
20397;SDS011;10358;49.590;11.030;2023-07-31T02:20:17;5.43;;;1.60;;
20397;SDS011;10358;49.590;11.030;2023-07-31T02:22:43;8.13;;;1.83;;
20397;SDS011;10358;49.590;11.030;2023-07-31T02:25:08;4.43;;;1.80;;
20397;SDS011;10358;49.590;11.030;2023-07-31T02:27:34;4.93;;;2.10;;
20397;SDS011;10358;49.590;11.030;2023-07-31T02:29:59;4.25;;;1.88;;
20397;SDS011;10358;49.590;11.030;2023-07-31T02:32:25;5.57;;;1.98;;
20397;SDS011;10358;49.590;11.030;2023-07-31T02:34:50;8.35;;;1.90;;
20397;SDS011;10358;49.590;11.030;2023-07-31T02:37:16;4.40;;;1.70;;
20397;SDS011;10358;49.590;11.030;2023-07-31T02:39:41;5.07;;;1.50;;
20397;SDS011;10358;49.590;11.030;2023-07-31T02:42:07;6.60;;;1.77;;
20397;SDS011;10358;49.590;11.030;2023-07-31T02:44:33;9.40;;;1.65;;
20397;SDS011;10358;49.590;11.030;2023-07-31T02:46:58;4.43;;;1.60;;
20397;SDS011;10358;49.590;11.030;2023-07-31T02:49:24;5.47;;;1.80;;
20397;SDS011;10358;49.590;11.030;2023-07-31T02:51:49;6.53;;;1.70;;
20397;SDS011;10358;49.590;11.030;2023-07-31T02:54:15;6.43;;;1.65;;
20397;SDS011;10358;49.590;11.030;2023-07-31T02:56:40;4.00;;;1.40;;
20397;SDS011;10358;49.590;11.030;2023-07-31T02:59:06;6.88;;;2.35;;
20397;SDS011;10358;49.590;11.030;2023-07-31T03:01:31;5.03;;;1.77;;
20397;SDS011;10358;49.590;11.030;2023-07-31T03:03:57;10.50;;;1.85;;
20397;SDS011;10358;49.590;11.030;2023-07-31T03:06:22;3.45;;;1.75;;
20397;SDS011;10358;49.590;11.030;2023-07-31T03:08:48;4.50;;;1.70;;
20397;SDS011;10358;49.590;11.030;2023-07-31T03:11:13;5.80;;;1.67;;
20397;SDS011;10358;49.590;11.030;2023-07-31T03:13:39;4.68;;;1.55;;
20397;SDS011;10358;49.590;11.030;2023-07-31T03:16:05;4.43;;;2.35;;
20397;SDS011;10358;49.590;11.030;2023-07-31T03:18:30;4.18;;;2.10;;
20397;SDS011;10358;49.590;11.030;2023-07-31T03:20:56;4.10;;;1.70;;
20397;SDS011;10358;49.590;11.030;2023-07-31T03:23:21;6.85;;;1.80;;
20397;SDS011;10358;49.590;11.030;2023-07-31T03:26:00;6.45;;;1.60;;
20397;SDS011;10358;49.590;11.030;2023-07-31T03:28:28;6.43;;;2.08;;
20397;SDS011;10358;49.590;11.030;2023-07-31T03:30:54;8.07;;;2.33;;
20397;SDS011;10358;49.590;11.030;2023-07-31T03:33:20;7.00;;;1.60;;
20397;SDS011;10358;49.590;11.030;2023-07-31T03:35:46;6.43;;;1.98;;
20397;SDS011;10358;49.590;11.030;2023-07-31T03:38:11;5.65;;;1.83;;
20397;SDS011;10358;49.590;11.030;2023-07-31T03:40:37;5.88;;;1.98;;
20397;SDS011;10358;49.590;11.030;2023-07-31T03:43:02;6.60;;;1.80;;
20397;SDS011;10358;49.590;11.030;2023-07-31T03:45:28;4.40;;;1.75;;
20397;SDS011;10358;49.590;11.030;2023-07-31T03:47:53;5.90;;;1.60;;
20397;SDS011;10358;49.590;11.030;2023-07-31T03:50:19;6.70;;;1.80;;
20397;SDS011;10358;49.590;11.030;2023-07-31T03:52:45;4.30;;;2.00;;
20397;SDS011;10358;49.590;11.030;2023-07-31T03:55:11;5.30;;;1.55;;
20397;SDS011;10358;49.590;11.030;2023-07-31T03:57:36;4.70;;;1.52;;
20397;SDS011;10358;49.590;11.030;2023-07-31T04:00:02;6.05;;;1.90;;
20397;SDS011;10358;49.590;11.030;2023-07-31T04:02:28;7.47;;;2.10;;
20397;SDS011;10358;49.590;11.030;2023-07-31T04:04:54;4.65;;;1.65;;
20397;SDS011;10358;49.590;11.030;2023-07-31T04:07:19;10.50;;;1.80;;
20397;SDS011;10358;49.590;11.030;2023-07-31T04:09:45;9.50;;;1.73;;
20397;SDS011;10358;49.590;11.030;2023-07-31T04:12:10;5.50;;;1.70;;
20397;SDS011;10358;49.590;11.030;2023-07-31T04:14:36;4.28;;;1.70;;
20397;SDS011;10358;49.590;11.030;2023-07-31T04:17:02;4.45;;;1.70;;
20397;SDS011;10358;49.590;11.030;2023-07-31T04:19:27;7.78;;;1.80;;
20397;SDS011;10358;49.590;11.030;2023-07-31T04:21:53;7.40;;;1.90;;
20397;SDS011;10358;49.590;11.030;2023-07-31T04:24:18;9.75;;;1.50;;
20397;SDS011;10358;49.590;11.030;2023-07-31T04:26:49;6.50;;;1.70;;
20397;SDS011;10358;49.590;11.030;2023-07-31T04:29:15;5.63;;;1.63;;
20397;SDS011;10358;49.590;11.030;2023-07-31T04:31:41;6.13;;;1.77;;
20397;SDS011;10358;49.590;11.030;2023-07-31T04:34:06;6.90;;;2.08;;
20397;SDS011;10358;49.590;11.030;2023-07-31T04:36:33;6.32;;;1.90;;
20397;SDS011;10358;49.590;11.030;2023-07-31T04:38:59;5.07;;;1.80;;
20397;SDS011;10358;49.590;11.030;2023-07-31T04:41:25;5.30;;;1.75;;
20397;SDS011;10358;49.590;11.030;2023-07-31T04:43:50;8.10;;;2.13;;
20397;SDS011;10358;49.590;11.030;2023-07-31T04:46:16;4.15;;;2.03;;
20397;SDS011;10358;49.590;11.030;2023-07-31T04:48:41;6.00;;;2.03;;
20397;SDS011;10358;49.590;11.030;2023-07-31T04:51:07;6.55;;;1.80;;
20397;SDS011;10358;49.590;11.030;2023-07-31T04:53:34;4.20;;;1.50;;
20397;SDS011;10358;49.590;11.030;2023-07-31T04:56:00;6.82;;;1.75;;
20397;SDS011;10358;49.590;11.030;2023-07-31T04:58:25;2.60;;;1.50;;
20397;SDS011;10358;49.590;11.030;2023-07-31T05:00:51;6.68;;;1.70;;
20397;SDS011;10358;49.590;11.030;2023-07-31T05:03:17;3.00;;;1.63;;
20397;SDS011;10358;49.590;11.030;2023-07-31T05:05:42;7.35;;;1.77;;
20397;SDS011;10358;49.590;11.030;2023-07-31T05:08:08;10.35;;;2.10;;
20397;SDS011;10358;49.590;11.030;2023-07-31T05:10:33;7.82;;;2.13;;
20397;SDS011;10358;49.590;11.030;2023-07-31T05:12:59;7.70;;;1.70;;
20397;SDS011;10358;49.590;11.030;2023-07-31T05:15:25;6.68;;;1.80;;
20397;SDS011;10358;49.590;11.030;2023-07-31T05:17:50;6.03;;;1.80;;
20397;SDS011;10358;49.590;11.030;2023-07-31T05:20:16;4.00;;;1.80;;
20397;SDS011;10358;49.590;11.030;2023-07-31T05:22:41;4.70;;;1.60;;
20397;SDS011;10358;49.590;11.030;2023-07-31T05:25:07;4.47;;;1.88;;
20397;SDS011;10358;49.590;11.030;2023-07-31T05:27:33;9.10;;;1.92;;
20397;SDS011;10358;49.590;11.030;2023-07-31T05:29:58;6.28;;;1.98;;
20397;SDS011;10358;49.590;11.030;2023-07-31T05:32:24;7.10;;;2.05;;
20397;SDS011;10358;49.590;11.030;2023-07-31T05:34:53;3.95;;;1.60;;
20397;SDS011;10358;49.590;11.030;2023-07-31T05:37:18;6.95;;;1.90;;
20397;SDS011;10358;49.590;11.030;2023-07-31T05:39:44;4.43;;;1.80;;
20397;SDS011;10358;49.590;11.030;2023-07-31T05:42:10;3.58;;;1.65;;
20397;SDS011;10358;49.590;11.030;2023-07-31T05:44:35;5.82;;;1.95;;
20397;SDS011;10358;49.590;11.030;2023-07-31T05:47:01;10.05;;;2.03;;
20397;SDS011;10358;49.590;11.030;2023-07-31T05:49:27;6.50;;;1.98;;
20397;SDS011;10358;49.590;11.030;2023-07-31T05:51:52;3.35;;;1.60;;
20397;SDS011;10358;49.590;11.030;2023-07-31T05:54:18;9.45;;;2.22;;
20397;SDS011;10358;49.590;11.030;2023-07-31T05:56:43;7.65;;;1.85;;
20397;SDS011;10358;49.590;11.030;2023-07-31T05:59:09;6.20;;;1.80;;
20397;SDS011;10358;49.590;11.030;2023-07-31T06:01:37;3.47;;;1.52;;
20397;SDS011;10358;49.590;11.030;2023-07-31T06:04:03;6.25;;;1.98;;
20397;SDS011;10358;49.590;11.030;2023-07-31T06:06:28;7.13;;;2.13;;
20397;SDS011;10358;49.590;11.030;2023-07-31T06:08:55;6.22;;;1.90;;
20397;SDS011;10358;49.590;11.030;2023-07-31T06:11:21;6.30;;;1.80;;
20397;SDS011;10358;49.590;11.030;2023-07-31T06:13:46;7.72;;;1.80;;
20397;SDS011;10358;49.590;11.030;2023-07-31T06:16:14;7.30;;;2.00;;
20397;SDS011;10358;49.590;11.030;2023-07-31T06:18:40;5.88;;;2.05;;
20397;SDS011;10358;49.590;11.030;2023-07-31T06:21:06;5.13;;;1.77;;
20397;SDS011;10358;49.590;11.030;2023-07-31T06:23:31;5.72;;;1.88;;
20397;SDS011;10358;49.590;11.030;2023-07-31T06:25:57;7.00;;;1.92;;
20397;SDS011;10358;49.590;11.030;2023-07-31T06:28:29;8.57;;;2.10;;
20397;SDS011;10358;49.590;11.030;2023-07-31T06:30:56;7.05;;;1.90;;
20397;SDS011;10358;49.590;11.030;2023-07-31T06:33:22;8.75;;;2.10;;
20397;SDS011;10358;49.590;11.030;2023-07-31T06:35:47;4.35;;;1.73;;
20397;SDS011;10358;49.590;11.030;2023-07-31T06:38:13;7.63;;;1.98;;
20397;SDS011;10358;49.590;11.030;2023-07-31T06:40:38;4.93;;;1.73;;
20397;SDS011;10358;49.590;11.030;2023-07-31T06:43:04;6.60;;;2.00;;
20397;SDS011;10358;49.590;11.030;2023-07-31T06:45:36;4.90;;;1.95;;
20397;SDS011;10358;49.590;11.030;2023-07-31T06:48:02;4.03;;;1.90;;
20397;SDS011;10358;49.590;11.030;2023-07-31T06:50:28;10.20;;;2.65;;
20397;SDS011;10358;49.590;11.030;2023-07-31T06:52:54;6.60;;;2.00;;
20397;SDS011;10358;49.590;11.030;2023-07-31T06:55:20;3.97;;;1.70;;
20397;SDS011;10358;49.590;11.030;2023-07-31T06:57:47;6.28;;;1.90;;
20397;SDS011;10358;49.590;11.030;2023-07-31T07:00:14;7.55;;;2.40;;
20397;SDS011;10358;49.590;11.030;2023-07-31T07:02:40;7.15;;;2.13;;
20397;SDS011;10358;49.590;11.030;2023-07-31T07:05:06;8.80;;;2.45;;
20397;SDS011;10358;49.590;11.030;2023-07-31T07:07:33;9.55;;;2.30;;
20397;SDS011;10358;49.590;11.030;2023-07-31T07:09:59;6.45;;;2.10;;
20397;SDS011;10358;49.590;11.030;2023-07-31T07:12:24;4.28;;;1.77;;
20397;SDS011;10358;49.590;11.030;2023-07-31T07:14:50;6.30;;;2.35;;
20397;SDS011;10358;49.590;11.030;2023-07-31T07:17:18;6.03;;;2.17;;
20397;SDS011;10358;49.590;11.030;2023-07-31T07:19:44;10.27;;;2.25;;
20397;SDS011;10358;49.590;11.030;2023-07-31T07:22:10;5.13;;;2.00;;
20397;SDS011;10358;49.590;11.030;2023-07-31T07:24:36;5.82;;;1.98;;
20397;SDS011;10358;49.590;11.030;2023-07-31T07:27:02;4.80;;;2.03;;
20397;SDS011;10358;49.590;11.030;2023-07-31T07:29:27;6.68;;;2.13;;
20397;SDS011;10358;49.590;11.030;2023-07-31T07:31:53;5.50;;;2.08;;
20397;SDS011;10358;49.590;11.030;2023-07-31T07:34:19;7.38;;;2.40;;
20397;SDS011;10358;49.590;11.030;2023-07-31T07:36:44;9.07;;;2.15;;
20397;SDS011;10358;49.590;11.030;2023-07-31T07:39:10;5.38;;;2.00;;
20397;SDS011;10358;49.590;11.030;2023-07-31T07:41:36;5.85;;;2.00;;
20397;SDS011;10358;49.590;11.030;2023-07-31T07:44:01;5.28;;;1.98;;
20397;SDS011;10358;49.590;11.030;2023-07-31T07:46:27;5.97;;;1.95;;
20397;SDS011;10358;49.590;11.030;2023-07-31T07:48:53;11.77;;;2.67;;
20397;SDS011;10358;49.590;11.030;2023-07-31T07:51:18;9.20;;;2.13;;
20397;SDS011;10358;49.590;11.030;2023-07-31T07:53:44;6.25;;;2.42;;
20397;SDS011;10358;49.590;11.030;2023-07-31T07:56:09;9.07;;;2.08;;
20397;SDS011;10358;49.590;11.030;2023-07-31T07:58:35;8.93;;;2.30;;
20397;SDS011;10358;49.590;11.030;2023-07-31T08:01:00;6.10;;;2.40;;
20397;SDS011;10358;49.590;11.030;2023-07-31T08:03:26;7.28;;;2.15;;
20397;SDS011;10358;49.590;11.030;2023-07-31T08:05:51;8.32;;;2.38;;
20397;SDS011;10358;49.590;11.030;2023-07-31T08:08:17;5.65;;;2.13;;
20397;SDS011;10358;49.590;11.030;2023-07-31T08:10:43;8.00;;;2.50;;
20397;SDS011;10358;49.590;11.030;2023-07-31T08:13:11;8.07;;;2.30;;
20397;SDS011;10358;49.590;11.030;2023-07-31T08:15:37;5.95;;;2.38;;
20397;SDS011;10358;49.590;11.030;2023-07-31T08:18:03;4.13;;;2.10;;
20397;SDS011;10358;49.590;11.030;2023-07-31T08:20:28;6.72;;;2.25;;
20397;SDS011;10358;49.590;11.030;2023-07-31T08:22:54;7.20;;;2.45;;
20397;SDS011;10358;49.590;11.030;2023-07-31T08:25:19;7.35;;;2.30;;
20397;SDS011;10358;49.590;11.030;2023-07-31T08:27:45;5.97;;;2.13;;
20397;SDS011;10358;49.590;11.030;2023-07-31T08:30:11;5.85;;;2.38;;
20397;SDS011;10358;49.590;11.030;2023-07-31T08:32:37;6.55;;;2.10;;
20397;SDS011;10358;49.590;11.030;2023-07-31T08:35:02;7.30;;;2.10;;
20397;SDS011;10358;49.590;11.030;2023-07-31T08:37:28;10.15;;;2.53;;
20397;SDS011;10358;49.590;11.030;2023-07-31T08:39:54;7.43;;;2.10;;
20397;SDS011;10358;49.590;11.030;2023-07-31T08:42:19;4.97;;;2.17;;
20397;SDS011;10358;49.590;11.030;2023-07-31T08:44:46;11.35;;;2.50;;
20397;SDS011;10358;49.590;11.030;2023-07-31T08:47:12;6.40;;;2.20;;
20397;SDS011;10358;49.590;11.030;2023-07-31T08:49:39;7.53;;;2.53;;
20397;SDS011;10358;49.590;11.030;2023-07-31T08:52:06;6.35;;;2.05;;
20397;SDS011;10358;49.590;11.030;2023-07-31T08:54:31;9.80;;;2.28;;
20397;SDS011;10358;49.590;11.030;2023-07-31T08:56:58;8.80;;;2.38;;
20397;SDS011;10358;49.590;11.030;2023-07-31T08:59:25;6.18;;;1.98;;
20397;SDS011;10358;49.590;11.030;2023-07-31T09:01:54;5.57;;;2.22;;
20397;SDS011;10358;49.590;11.030;2023-07-31T09:04:22;7.82;;;2.25;;
20397;SDS011;10358;49.590;11.030;2023-07-31T09:06:49;8.27;;;2.28;;
20397;SDS011;10358;49.590;11.030;2023-07-31T09:09:22;7.97;;;2.53;;
20397;SDS011;10358;49.590;11.030;2023-07-31T09:11:49;6.78;;;2.35;;
20397;SDS011;10358;49.590;11.030;2023-07-31T09:14:14;4.97;;;2.20;;
20397;SDS011;10358;49.590;11.030;2023-07-31T09:16:54;5.93;;;2.22;;
20397;SDS011;10358;49.590;11.030;2023-07-31T09:19:32;7.70;;;2.28;;
20397;SDS011;10358;49.590;11.030;2023-07-31T09:22:01;5.28;;;2.30;;
20397;SDS011;10358;49.590;11.030;2023-07-31T09:24:28;5.32;;;2.10;;
20397;SDS011;10358;49.590;11.030;2023-07-31T09:26:55;5.90;;;2.30;;
20397;SDS011;10358;49.590;11.030;2023-07-31T09:29:24;7.03;;;2.20;;
20397;SDS011;10358;49.590;11.030;2023-07-31T09:31:54;5.25;;;2.15;;
20397;SDS011;10358;49.590;11.030;2023-07-31T09:34:20;9.55;;;2.65;;
20397;SDS011;10358;49.590;11.030;2023-07-31T09:37:03;6.82;;;2.30;;
20397;SDS011;10358;49.590;11.030;2023-07-31T09:39:30;7.20;;;2.38;;
20397;SDS011;10358;49.590;11.030;2023-07-31T09:41:56;4.45;;;2.10;;
20397;SDS011;10358;49.590;11.030;2023-07-31T09:44:36;8.85;;;2.40;;
20397;SDS011;10358;49.590;11.030;2023-07-31T09:47:21;4.50;;;2.00;;
20397;SDS011;10358;49.590;11.030;2023-07-31T09:49:48;7.07;;;2.40;;
20397;SDS011;10358;49.590;11.030;2023-07-31T09:52:16;6.43;;;2.42;;
20397;SDS011;10358;49.590;11.030;2023-07-31T09:54:42;7.32;;;2.25;;
20397;SDS011;10358;49.590;11.030;2023-07-31T09:57:08;6.40;;;2.30;;
20397;SDS011;10358;49.590;11.030;2023-07-31T09:59:34;5.60;;;2.40;;
20397;SDS011;10358;49.590;11.030;2023-07-31T10:02:00;6.57;;;2.50;;
20397;SDS011;10358;49.590;11.030;2023-07-31T10:04:29;7.95;;;2.55;;
20397;SDS011;10358;49.590;11.030;2023-07-31T10:06:55;8.88;;;2.95;;
20397;SDS011;10358;49.590;11.030;2023-07-31T10:09:23;8.23;;;2.30;;
20397;SDS011;10358;49.590;11.030;2023-07-31T10:11:53;5.53;;;2.47;;
20397;SDS011;10358;49.590;11.030;2023-07-31T10:14:24;7.32;;;2.28;;
20397;SDS011;10358;49.590;11.030;2023-07-31T10:16:52;7.07;;;2.60;;
20397;SDS011;10358;49.590;11.030;2023-07-31T10:19:18;5.53;;;2.22;;
20397;SDS011;10358;49.590;11.030;2023-07-31T10:21:45;5.95;;;2.30;;
20397;SDS011;10358;49.590;11.030;2023-07-31T10:24:13;5.00;;;2.38;;
20397;SDS011;10358;49.590;11.030;2023-07-31T10:26:40;4.07;;;2.10;;
20397;SDS011;10358;49.590;11.030;2023-07-31T10:29:09;7.00;;;2.03;;
20397;SDS011;10358;49.590;11.030;2023-07-31T10:31:34;5.65;;;2.20;;
20397;SDS011;10358;49.590;11.030;2023-07-31T10:34:01;6.68;;;2.30;;
20397;SDS011;10358;49.590;11.030;2023-07-31T10:36:28;7.00;;;2.65;;
20397;SDS011;10358;49.590;11.030;2023-07-31T10:38:54;9.85;;;2.35;;
20397;SDS011;10358;49.590;11.030;2023-07-31T10:41:27;7.80;;;2.38;;
20397;SDS011;10358;49.590;11.030;2023-07-31T10:43:57;5.57;;;2.10;;
20397;SDS011;10358;49.590;11.030;2023-07-31T10:46:24;4.90;;;2.03;;
20397;SDS011;10358;49.590;11.030;2023-07-31T10:48:57;4.63;;;2.00;;
20397;SDS011;10358;49.590;11.030;2023-07-31T10:51:24;6.18;;;2.20;;
20397;SDS011;10358;49.590;11.030;2023-07-31T10:54:13;6.70;;;2.20;;
20397;SDS011;10358;49.590;11.030;2023-07-31T10:56:46;7.25;;;2.08;;
20397;SDS011;10358;49.590;11.030;2023-07-31T10:59:18;4.65;;;2.20;;
20397;SDS011;10358;49.590;11.030;2023-07-31T11:01:54;6.03;;;2.27;;
20397;SDS011;10358;49.590;11.030;2023-07-31T11:04:27;5.43;;;2.30;;
20397;SDS011;10358;49.590;11.030;2023-07-31T11:07:00;5.25;;;2.60;;
20397;SDS011;10358;49.590;11.030;2023-07-31T11:09:28;4.00;;;1.98;;
20397;SDS011;10358;49.590;11.030;2023-07-31T11:11:55;5.90;;;2.50;;
20397;SDS011;10358;49.590;11.030;2023-07-31T11:14:21;4.50;;;2.10;;
20397;SDS011;10358;49.590;11.030;2023-07-31T11:16:51;6.70;;;2.17;;
20397;SDS011;10358;49.590;11.030;2023-07-31T11:19:23;5.57;;;2.50;;
20397;SDS011;10358;49.590;11.030;2023-07-31T11:21:49;7.32;;;2.75;;
20397;SDS011;10358;49.590;11.030;2023-07-31T11:24:15;7.20;;;2.63;;
20397;SDS011;10358;49.590;11.030;2023-07-31T11:26:52;7.63;;;2.53;;
20397;SDS011;10358;49.590;11.030;2023-07-31T11:29:19;6.28;;;2.30;;
20397;SDS011;10358;49.590;11.030;2023-07-31T11:31:45;7.50;;;2.28;;
20397;SDS011;10358;49.590;11.030;2023-07-31T11:34:11;5.50;;;2.42;;
20397;SDS011;10358;49.590;11.030;2023-07-31T11:36:37;6.28;;;2.38;;
20397;SDS011;10358;49.590;11.030;2023-07-31T11:39:10;8.45;;;2.28;;
20397;SDS011;10358;49.590;11.030;2023-07-31T11:41:36;6.45;;;2.53;;
20397;SDS011;10358;49.590;11.030;2023-07-31T11:44:02;8.80;;;2.42;;
20397;SDS011;10358;49.590;11.030;2023-07-31T11:46:30;7.07;;;2.53;;
20397;SDS011;10358;49.590;11.030;2023-07-31T11:48:59;6.72;;;2.35;;
20397;SDS011;10358;49.590;11.030;2023-07-31T11:51:26;5.80;;;2.33;;
20397;SDS011;10358;49.590;11.030;2023-07-31T11:53:55;5.93;;;2.70;;
20397;SDS011;10358;49.590;11.030;2023-07-31T11:56:22;5.68;;;2.60;;
20397;SDS011;10358;49.590;11.030;2023-07-31T11:58:49;7.13;;;2.65;;
20397;SDS011;10358;49.590;11.030;2023-07-31T12:01:15;7.60;;;2.30;;
20397;SDS011;10358;49.590;11.030;2023-07-31T12:03:44;6.45;;;2.40;;
20397;SDS011;10358;49.590;11.030;2023-07-31T12:06:10;5.82;;;2.40;;
20397;SDS011;10358;49.590;11.030;2023-07-31T12:08:36;5.35;;;2.65;;
20397;SDS011;10358;49.590;11.030;2023-07-31T12:11:04;5.35;;;2.15;;
20397;SDS011;10358;49.590;11.030;2023-07-31T12:13:31;8.38;;;2.30;;
20397;SDS011;10358;49.590;11.030;2023-07-31T12:15:58;5.75;;;2.30;;
20397;SDS011;10358;49.590;11.030;2023-07-31T12:18:25;5.65;;;2.40;;
20397;SDS011;10358;49.590;11.030;2023-07-31T12:20:55;7.05;;;2.90;;
20397;SDS011;10358;49.590;11.030;2023-07-31T12:23:22;5.88;;;2.42;;
20397;SDS011;10358;49.590;11.030;2023-07-31T12:28:28;5.75;;;2.55;;
20397;SDS011;10358;49.590;11.030;2023-07-31T12:30:56;7.85;;;2.45;;
20397;SDS011;10358;49.590;11.030;2023-07-31T12:33:24;5.28;;;2.50;;
20397;SDS011;10358;49.590;11.030;2023-07-31T12:35:50;4.13;;;2.35;;
20397;SDS011;10358;49.590;11.030;2023-07-31T12:38:16;8.02;;;2.63;;
20397;SDS011;10358;49.590;11.030;2023-07-31T12:40:41;6.20;;;2.40;;
20397;SDS011;10358;49.590;11.030;2023-07-31T12:43:08;5.97;;;2.70;;
20397;SDS011;10358;49.590;11.030;2023-07-31T12:45:34;7.10;;;2.30;;
20397;SDS011;10358;49.590;11.030;2023-07-31T12:48:00;5.70;;;2.00;;
20397;SDS011;10358;49.590;11.030;2023-07-31T12:50:27;6.45;;;2.42;;
20397;SDS011;10358;49.590;11.030;2023-07-31T12:52:53;6.20;;;2.53;;
20397;SDS011;10358;49.590;11.030;2023-07-31T12:55:20;4.60;;;2.40;;
20397;SDS011;10358;49.590;11.030;2023-07-31T12:57:46;3.88;;;2.45;;
20397;SDS011;10358;49.590;11.030;2023-07-31T13:00:12;4.57;;;2.25;;
20397;SDS011;10358;49.590;11.030;2023-07-31T13:02:38;5.35;;;2.33;;
20397;SDS011;10358;49.590;11.030;2023-07-31T13:05:04;5.43;;;2.25;;
20397;SDS011;10358;49.590;11.030;2023-07-31T13:07:30;5.97;;;2.22;;
20397;SDS011;10358;49.590;11.030;2023-07-31T13:09:56;6.45;;;2.85;;
20397;SDS011;10358;49.590;11.030;2023-07-31T13:12:22;5.07;;;2.28;;
20397;SDS011;10358;49.590;11.030;2023-07-31T13:14:48;6.95;;;2.50;;
20397;SDS011;10358;49.590;11.030;2023-07-31T13:17:14;4.93;;;2.30;;
20397;SDS011;10358;49.590;11.030;2023-07-31T13:19:40;5.75;;;2.50;;
20397;SDS011;10358;49.590;11.030;2023-07-31T13:22:07;7.32;;;2.58;;
20397;SDS011;10358;49.590;11.030;2023-07-31T13:24:33;6.00;;;2.50;;
20397;SDS011;10358;49.590;11.030;2023-07-31T13:26:59;6.85;;;2.30;;
20397;SDS011;10358;49.590;11.030;2023-07-31T13:29:25;4.68;;;2.28;;
20397;SDS011;10358;49.590;11.030;2023-07-31T13:31:52;5.22;;;2.50;;
20397;SDS011;10358;49.590;11.030;2023-07-31T13:34:18;5.68;;;2.67;;
20397;SDS011;10358;49.590;11.030;2023-07-31T13:36:44;6.47;;;2.50;;
20397;SDS011;10358;49.590;11.030;2023-07-31T13:39:11;8.25;;;2.50;;
20397;SDS011;10358;49.590;11.030;2023-07-31T13:41:37;6.97;;;2.50;;
20397;SDS011;10358;49.590;11.030;2023-07-31T13:44:03;5.80;;;2.15;;
20397;SDS011;10358;49.590;11.030;2023-07-31T13:46:29;5.40;;;2.70;;
20397;SDS011;10358;49.590;11.030;2023-07-31T13:48:55;5.03;;;2.55;;
20397;SDS011;10358;49.590;11.030;2023-07-31T13:51:21;5.15;;;2.40;;
20397;SDS011;10358;49.590;11.030;2023-07-31T13:53:47;4.93;;;2.42;;
20397;SDS011;10358;49.590;11.030;2023-07-31T13:56:13;11.18;;;2.85;;
20397;SDS011;10358;49.590;11.030;2023-07-31T13:58:39;5.50;;;2.47;;
20397;SDS011;10358;49.590;11.030;2023-07-31T14:01:05;6.15;;;2.60;;
20397;SDS011;10358;49.590;11.030;2023-07-31T14:03:31;6.95;;;2.30;;
20397;SDS011;10358;49.590;11.030;2023-07-31T14:05:57;10.23;;;2.53;;
20397;SDS011;10358;49.590;11.030;2023-07-31T14:08:23;4.80;;;2.28;;
20397;SDS011;10358;49.590;11.030;2023-07-31T14:10:49;12.73;;;2.83;;
20397;SDS011;10358;49.590;11.030;2023-07-31T14:13:15;9.80;;;2.60;;
20397;SDS011;10358;49.590;11.030;2023-07-31T14:15:41;6.25;;;2.65;;
20397;SDS011;10358;49.590;11.030;2023-07-31T14:18:10;6.80;;;2.33;;
20397;SDS011;10358;49.590;11.030;2023-07-31T14:20:36;6.78;;;2.40;;
20397;SDS011;10358;49.590;11.030;2023-07-31T14:23:02;7.75;;;2.30;;
20397;SDS011;10358;49.590;11.030;2023-07-31T14:25:29;5.07;;;2.40;;
20397;SDS011;10358;49.590;11.030;2023-07-31T14:27:55;5.20;;;2.63;;
20397;SDS011;10358;49.590;11.030;2023-07-31T14:30:20;6.80;;;2.75;;
20397;SDS011;10358;49.590;11.030;2023-07-31T14:32:47;6.28;;;2.50;;
20397;SDS011;10358;49.590;11.030;2023-07-31T14:35:13;6.70;;;2.55;;
20397;SDS011;10358;49.590;11.030;2023-07-31T14:37:42;6.03;;;2.50;;
20397;SDS011;10358;49.590;11.030;2023-07-31T14:40:08;6.20;;;2.92;;
20397;SDS011;10358;49.590;11.030;2023-07-31T14:42:35;7.22;;;2.80;;
20397;SDS011;10358;49.590;11.030;2023-07-31T14:45:01;6.97;;;2.33;;